sensor_id;sensor_type;location;lat;lon;timestamp;temperature;humidity
37658;DHT22;23500;53.268;8.308;2023-01-30T19:20:58;16.10;72.10
37658;DHT22;23500;53.268;8.308;2023-01-30T19:23:26;15.90;72.80
37658;DHT22;23500;53.268;8.308;2023-01-30T19:25:56;15.90;73.70
37658;DHT22;23500;53.268;8.308;2023-01-30T19:28:23;16.00;73.70
37658;DHT22;23500;53.268;8.308;2023-01-30T19:30:49;16.10;73.40
37658;DHT22;23500;53.268;8.308;2023-01-30T19:33:15;16.20;72.40
37658;DHT22;23500;53.268;8.308;2023-01-30T19:35:41;16.20;72.10
37658;DHT22;23500;53.268;8.308;2023-01-30T19:38:09;16.30;72.20
37658;DHT22;23500;53.268;8.308;2023-01-30T19:40:42;16.40;72.00
37658;DHT22;23500;53.268;8.308;2023-01-30T19:43:09;16.50;71.70
37658;DHT22;23500;53.268;8.308;2023-01-30T19:45:39;16.50;71.40
37658;DHT22;23500;53.268;8.308;2023-01-30T19:48:06;16.60;71.10
37658;DHT22;23500;53.268;8.308;2023-01-30T19:50:33;16.60;71.10
37658;DHT22;23500;53.268;8.308;2023-01-30T19:52:58;16.60;70.80
37658;DHT22;23500;53.268;8.308;2023-01-30T19:55:24;16.70;70.80
37658;DHT22;23500;53.268;8.308;2023-01-30T19:57:50;16.70;70.60
37658;DHT22;23500;53.268;8.308;2023-01-30T20:00:16;16.80;70.40
37658;DHT22;23500;53.268;8.308;2023-01-30T20:02:41;16.80;70.30
37658;DHT22;23500;53.268;8.308;2023-01-30T20:05:08;16.90;69.90
37658;DHT22;23500;53.268;8.308;2023-01-30T20:07:34;16.90;69.60
37658;DHT22;23500;53.268;8.308;2023-01-30T20:10:05;17.00;69.40
37658;DHT22;23500;53.268;8.308;2023-01-30T20:12:30;17.00;68.90
37658;DHT22;23500;53.268;8.308;2023-01-30T20:14:57;17.10;69.00
37658;DHT22;23500;53.268;8.308;2023-01-30T20:17:23;17.10;68.70
37658;DHT22;23500;53.268;8.308;2023-01-30T20:19:48;17.10;68.70
37658;DHT22;23500;53.268;8.308;2023-01-30T20:22:14;17.10;68.40
37658;DHT22;23500;53.268;8.308;2023-01-30T20:24:40;17.10;68.70
37658;DHT22;23500;53.268;8.308;2023-01-30T20:27:05;17.10;68.40
37658;DHT22;23500;53.268;8.308;2023-01-30T20:29:31;17.10;68.40
37658;DHT22;23500;53.268;8.308;2023-01-30T20:31:57;17.10;68.70
37658;DHT22;23500;53.268;8.308;2023-01-30T20:34:22;17.00;68.70
37658;DHT22;23500;53.268;8.308;2023-01-30T20:36:48;17.00;68.80
37658;DHT22;23500;53.268;8.308;2023-01-30T20:39:14;17.00;68.90
37658;DHT22;23500;53.268;8.308;2023-01-30T20:41:41;17.00;69.00
37658;DHT22;23500;53.268;8.308;2023-01-30T20:44:10;16.90;69.10
37658;DHT22;23500;53.268;8.308;2023-01-30T20:46:37;16.90;69.20
37658;DHT22;23500;53.268;8.308;2023-01-30T20:49:10;16.90;69.40
37658;DHT22;23500;53.268;8.308;2023-01-30T20:51:36;16.80;69.50
37658;DHT22;23500;53.268;8.308;2023-01-30T20:54:03;16.70;69.60
37658;DHT22;23500;53.268;8.308;2023-01-30T20:56:41;16.70;69.70
37658;DHT22;23500;53.268;8.308;2023-01-30T20:59:08;16.70;69.80
37658;DHT22;23500;53.268;8.308;2023-01-30T21:01:34;16.60;69.80
37658;DHT22;23500;53.268;8.308;2023-01-30T21:04:05;16.60;69.70
37658;DHT22;23500;53.268;8.308;2023-01-30T21:06:33;16.60;69.50
37658;DHT22;23500;53.268;8.308;2023-01-30T21:08:59;16.50;69.40
37658;DHT22;23500;53.268;8.308;2023-01-30T21:11:24;16.50;69.40
37658;DHT22;23500;53.268;8.308;2023-01-30T21:13:50;16.40;70.00
37658;DHT22;23500;53.268;8.308;2023-01-30T21:16:19;16.40;70.00
37658;DHT22;23500;53.268;8.308;2023-01-30T21:18:47;16.40;70.10
37658;DHT22;23500;53.268;8.308;2023-01-30T21:21:20;16.40;70.00
37658;DHT22;23500;53.268;8.308;2023-01-30T21:23:47;16.30;70.30
37658;DHT22;23500;53.268;8.308;2023-01-30T21:26:14;16.30;70.60
37658;DHT22;23500;53.268;8.308;2023-01-30T21:28:40;16.30;70.70
37658;DHT22;23500;53.268;8.308;2023-01-30T21:31:11;16.20;70.90
37658;DHT22;23500;53.268;8.308;2023-01-30T21:33:37;16.20;71.00
37658;DHT22;23500;53.268;8.308;2023-01-30T21:36:03;16.20;71.00
37658;DHT22;23500;53.268;8.308;2023-01-30T21:38:29;16.20;71.20
37658;DHT22;23500;53.268;8.308;2023-01-30T21:41:19;16.10;71.20
37658;DHT22;23500;53.268;8.308;2023-01-30T21:44:03;16.10;71.20
37658;DHT22;23500;53.268;8.308;2023-01-30T21:46:35;16.10;71.40
37658;DHT22;23500;53.268;8.308;2023-01-30T21:49:03;16.10;71.60
37658;DHT22;23500;53.268;8.308;2023-01-30T21:51:28;16.00;71.50
37658;DHT22;23500;53.268;8.308;2023-01-30T21:53:55;16.00;71.60
37658;DHT22;23500;53.268;8.308;2023-01-30T21:56:21;16.00;71.70
37658;DHT22;23500;53.268;8.308;2023-01-30T21:58:47;16.00;71.80
37658;DHT22;23500;53.268;8.308;2023-01-30T22:01:14;16.00;71.70
37658;DHT22;23500;53.268;8.308;2023-01-30T22:03:40;16.00;71.80
37658;DHT22;23500;53.268;8.308;2023-01-30T22:06:06;15.90;71.70
37658;DHT22;23500;53.268;8.308;2023-01-30T22:08:33;15.90;71.90
37658;DHT22;23500;53.268;8.308;2023-01-30T22:13:34;15.90;72.10
37658;DHT22;23500;53.268;8.308;2023-01-30T22:16:01;15.90;71.90
37658;DHT22;23500;53.268;8.308;2023-01-30T22:18:28;15.90;71.90
37658;DHT22;23500;53.268;8.308;2023-01-30T22:21:03;15.80;71.80
37658;DHT22;23500;53.268;8.308;2023-01-30T22:23:33;15.80;71.70
37658;DHT22;23500;53.268;8.308;2023-01-30T22:25:59;15.80;71.80
37658;DHT22;23500;53.268;8.308;2023-01-30T22:28:25;15.80;72.20
37658;DHT22;23500;53.268;8.308;2023-01-30T22:30:58;15.80;72.20
37658;DHT22;23500;53.268;8.308;2023-01-30T22:33:24;15.80;73.00
37658;DHT22;23500;53.268;8.308;2023-01-30T22:35:49;15.70;72.20
37658;DHT22;23500;53.268;8.308;2023-01-30T22:38:15;15.70;71.90
37658;DHT22;23500;53.268;8.308;2023-01-30T22:40:41;15.70;71.50
37658;DHT22;23500;53.268;8.308;2023-01-30T22:43:06;15.70;71.70
37658;DHT22;23500;53.268;8.308;2023-01-30T22:45:35;15.70;72.10
37658;DHT22;23500;53.268;8.308;2023-01-30T22:48:01;15.70;72.60
37658;DHT22;23500;53.268;8.308;2023-01-30T22:50:26;15.60;72.70
37658;DHT22;23500;53.268;8.308;2023-01-30T22:52:54;15.60;72.80
37658;DHT22;23500;53.268;8.308;2023-01-30T22:55:20;15.60;72.90
37658;DHT22;23500;53.268;8.308;2023-01-30T22:57:45;15.60;72.80
37658;DHT22;23500;53.268;8.308;2023-01-30T23:00:11;15.60;72.90
37658;DHT22;23500;53.268;8.308;2023-01-30T23:02:38;15.60;72.90
37658;DHT22;23500;53.268;8.308;2023-01-30T23:05:04;15.60;73.00
37658;DHT22;23500;53.268;8.308;2023-01-30T23:07:30;15.60;73.00
37658;DHT22;23500;53.268;8.308;2023-01-30T23:09:56;15.50;73.00
37658;DHT22;23500;53.268;8.308;2023-01-30T23:12:22;15.50;73.00
37658;DHT22;23500;53.268;8.308;2023-01-30T23:15:06;15.50;73.10
37658;DHT22;23500;53.268;8.308;2023-01-30T23:17:32;15.50;73.20
37658;DHT22;23500;53.268;8.308;2023-01-30T23:20:16;15.50;73.20
37658;DHT22;23500;53.268;8.308;2023-01-30T23:22:42;15.50;73.20
37658;DHT22;23500;53.268;8.308;2023-01-30T23:25:08;15.50;73.30
37658;DHT22;23500;53.268;8.308;2023-01-30T23:27:35;15.50;73.40
37658;DHT22;23500;53.268;8.308;2023-01-30T23:30:00;15.40;73.40
37658;DHT22;23500;53.268;8.308;2023-01-30T23:32:26;15.40;73.40
37658;DHT22;23500;53.268;8.308;2023-01-30T23:34:52;15.40;73.40
37658;DHT22;23500;53.268;8.308;2023-01-30T23:37:18;15.40;73.40
37658;DHT22;23500;53.268;8.308;2023-01-30T23:40:04;15.40;73.40
37658;DHT22;23500;53.268;8.308;2023-01-30T23:42:31;15.40;73.50
37658;DHT22;23500;53.268;8.308;2023-01-30T23:44:57;15.40;73.50
37658;DHT22;23500;53.268;8.308;2023-01-30T23:49:48;15.40;73.00
37658;DHT22;23500;53.268;8.308;2023-01-30T23:52:14;15.40;73.60
37658;DHT22;23500;53.268;8.308;2023-01-30T23:54:39;15.40;73.70
37658;DHT22;23500;53.268;8.308;2023-01-30T23:57:05;15.30;73.70
37658;DHT22;23500;53.268;8.308;2023-01-30T23:59:31;15.30;73.70
